Terminal Aerodrome Forecast
Issued by NWS Charleston, WV

Current Version | Previous Version | Text Only | Print | Product List | Glossary Off
Versions: 1 2 3 4 5 6 7 8 9 10 11 12 13 14 15 16 17 18 19 20 21 22 23 24 25

000
FTUS41 KRLX 180545
TAFCRW
TAF
KCRW 180545Z 1806/1906 00000KT P6SM BKN070
     FM180900 00000KT P6SM SHRA VCTS BKN050CB
     FM181000 00000KT 6SM SHRA BKN035 OVC050
      TEMPO 1810/1814 3SM TSRA SCT010 OVC020CB
     FM181400 22004KT 4SM SHRA VCTS BKN035CB OVC050
     FM181700 25006KT P6SM SHRA BKN040
     FM182100 26007KT P6SM BKN040
     FM190100 VRB04KT P6SM FEW070=

USA.gov is the U.S. government's official web portal to all federal, state and local government web resources and services.